EET,Max TemperatureF,Mean TemperatureF,Min TemperatureF,Max Dew PointF,MeanDew PointF,Min DewpointF,Max Humidity, Mean Humidity, Min Humidity, Max Sea Level PressureIn, Mean Sea Level PressureIn, Min Sea Level PressureIn, Max VisibilityMiles, Mean VisibilityMiles, Min VisibilityMiles, Max Wind SpeedMPH, Mean Wind SpeedMPH, Max Gust SpeedMPH,PrecipitationIn, CloudCover, Events, WindDirDegrees
2014-1-1,48,46,43,43,41,39,87,82,73,30.28,30.24,30.21,6,4,4,12,7,,0.00,6,,31
2014-1-2,54,49,44,41,40,37,81,72,55,30.23,30.17,30.12,12,6,4,10,5,,0.00,5,,48
2014-1-3,52,48,45,45,43,41,93,81,66,30.24,30.19,30.15,6,5,4,9,6,,0.00,5,Rain,10
2014-1-4,52,47,42,46,44,41,93,86,70,30.32,30.27,30.21,6,5,2,12,6,,0.00,5,,356
2014-1-5,50,46,42,45,43,41,100,88,71,30.28,30.22,30.18,4,3,2,7,1,,0.00,3,,216
2014-1-6,55,46,38,45,42,38,100,77,56,30.23,30.20,30.18,6,3,1,8,2,,0.00,,Fog,85
2014-1-7,57,50,43,45,41,34,93,72,34,30.32,30.26,30.21,6,5,2,12,5,,0.00,3,,58
2014-1-8,54,49,44,45,43,41,93,81,54,30.33,30.26,30.21,6,4,4,17,8,15,0.00,2,,35
2014-1-9,52,47,42,44,42,39,93,81,62,30.24,30.19,30.15,6,4,2,12,7,,0.00,3,,53
2014-1-10,51,46,42,46,41,37,93,78,56,30.15,30.10,30.01,12,4,2,15,7,26,0.00,5,,224
2014-1-11,52,47,42,46,43,39,94,80,60,30.27,30.20,30.15,6,4,2,9,6,,0.00,,,246
2014-1-12,50,44,39,45,43,41,100,88,75,30.22,30.15,30.09,6,3,0,12,5,,0.00,,Fog,241
2014-1-13,54,48,42,46,44,39,100,90,50,30.24,30.16,30.12,6,2,0,9,5,,0.01,2,Fog,206
2014-1-14,57,48,38,45,42,39,100,79,46,30.16,30.12,30.09,4,2,1,9,3,,0.00,3,Fog,8
2014-1-15,59,48,37,45,41,35,100,70,41,30.14,30.09,30.04,6,3,2,8,4,,0.00,,,70
2014-1-16,55,53,51,50,47,43,94,79,58,30.06,30.02,29.98,6,6,2,8,4,21,0.12,6,Rain,225
2014-1-17,57,52,48,50,48,46,100,87,70,30.19,30.12,30.06,12,5,2,12,6,,0.00,6,Rain,207
2014-1-18,58,52,47,50,48,46,94,81,64,30.15,30.11,30.09,6,6,6,15,8,,0.00,6,,235
2014-1-19,61,56,52,52,49,48,88,79,65,30.16,30.10,30.06,12,6,6,12,7,,0.00,2,,238
2014-1-20,60,56,51,48,47,45,88,73,51,30.07,29.99,29.92,12,6,6,13,7,,0.00,4,,215
2014-1-21,62,57,52,48,46,41,77,64,39,29.95,29.86,29.77,6,6,6,23,10,,0.08,5,Rain,195
2014-1-22,57,53,49,48,47,46,94,80,67,29.98,29.85,29.77,6,6,4,21,14,33,0.00,6,Rain,226
2014-1-23,57,52,46,48,46,45,94,81,63,30.10,30.04,29.98,12,6,4,13,5,,0.01,6,Rain,261
2014-1-24,59,52,45,48,46,43,94,76,53,30.10,30.02,29.89,6,5,3,9,4,,0.00,5,,97
2014-1-25,62,55,48,48,45,43,87,69,50,29.89,29.69,29.62,6,6,5,15,8,,0.08,5,Rain,106
2014-1-26,45,42,37,45,41,36,100,86,55,29.63,29.53,29.44,6,4,1,28,14,,0.02,6,Rain,358
2014-1-27,37,34,31,36,32,30,100,89,77,29.71,29.62,29.47,4,3,2,29,21,41,0.02,6,Rain-Snow,359
2014-1-28,50,42,35,41,38,34,93,81,59,29.75,29.69,29.65,4,3,2,14,9,23,0.12,6,Rain,50
2014-1-29,54,46,37,46,41,32,87,81,71,30.06,29.68,29.47,6,5,2,32,12,46,0.02,5,Rain,339
2014-1-30,37,34,32,32,29,27,87,78,66,30.51,30.36,30.09,6,6,6,18,12,,0.00,6,,14
2014-1-31,43,38,34,34,32,30,87,76,61,30.56,30.51,30.48,12,6,6,16,13,26,0.00,6,,40